Time;durP1;ratioP1;P1;durP2;ratioP2;P2;SDS_P1;SDS_P2;PMS_P1;PMS_P2;Temp;Humidity;BMP_temperature;BMP_pressure;BME280_temperature;BME280_humidity;BME280_pressure;Samples;Min_cycle;Max_cycle;Signal;HPM_P1;HPM_P2
2023/10/30 00:00:09;;;;;;;7.78;6.07;;;;;;;2.19;66.94;99767.59;5114924;28;20123;-54
2023/10/30 00:02:36;;;;;;;7.30;5.68;;;;;;;2.25;67.04;99769.13;5115375;27;20117;-55
2023/10/30 00:05:02;;;;;;;8.38;6.22;;;;;;;1.98;66.91;99735.16;5115705;28;20312;-54
2023/10/30 00:07:30;;;;;;;7.30;5.82;;;;;;;2.21;67.17;99772.84;5115509;28;20438;-57
2023/10/30 00:09:55;;;;;;;7.88;6.13;;;;;;;2.24;67.16;99767.41;5116428;28;20070;-56
2023/10/30 00:12:21;;;;;;;8.20;6.05;;;;;;;2.03;67.03;99732.28;5114792;28;20031;-58
2023/10/30 00:14:47;;;;;;;8.20;5.85;;;;;;;2.15;67.13;99763.41;5114346;28;20027;-59
2023/10/30 00:17:13;;;;;;;7.50;5.93;;;;;;;2.18;66.77;99778.25;5114596;28;20042;-56
2023/10/30 00:19:38;;;;;;;8.88;6.38;;;;;;;2.12;67.22;99771.47;5114998;28;20114;-53
2023/10/30 00:22:04;;;;;;;9.02;6.05;;;;;;;2.14;66.58;99757.25;5115242;28;20190;-57
2023/10/30 00:24:32;;;;;;;10.13;6.20;;;;;;;2.08;67.08;99765.47;5114244;28;20444;-55
2023/10/30 00:26:58;;;;;;;7.68;5.95;;;;;;;2.14;66.82;99778.38;5115749;28;20043;-51
2023/10/30 00:29:24;;;;;;;8.00;5.82;;;;;;;2.13;67.00;99755.53;5114942;28;20028;-56
2023/10/30 00:31:50;;;;;;;7.03;5.47;;;;;;;2.15;66.96;99766.03;5113976;28;20500;-53
2023/10/30 00:34:15;;;;;;;7.97;5.80;;;;;;;2.09;67.06;99761.91;5115004;28;20024;-55
2023/10/30 00:36:41;;;;;;;8.55;6.18;;;;;;;2.10;66.67;99749.56;5115156;28;20023;-50
2023/10/30 00:39:06;;;;;;;8.23;5.93;;;;;;;2.11;66.50;99738.91;5113782;28;20510;-54
2023/10/30 00:41:32;;;;;;;7.80;5.90;;;;;;;2.18;66.67;99763.25;5114918;28;20034;-55
2023/10/30 00:43:57;;;;;;;6.60;5.28;;;;;;;2.21;66.50;99759.63;5115223;28;20028;-57
2023/10/30 00:46:23;;;;;;;8.95;6.57;;;;;;;2.22;66.67;99758.69;5114807;28;20035;-55
2023/10/30 00:48:49;;;;;;;6.72;5.32;;;;;;;2.00;66.32;99722.72;5114980;28;20042;-53
2023/10/30 00:51:15;;;;;;;8.45;5.70;;;;;;;1.99;66.53;99732.41;5114680;28;20114;-55
2023/10/30 00:53:41;;;;;;;7.38;5.93;;;;;;;2.16;66.46;99749.25;5114421;28;20027;-53
2023/10/30 00:56:07;;;;;;;7.30;5.78;;;;;;;2.21;66.35;99756.97;5114903;28;20031;-53
2023/10/30 00:58:34;;;;;;;8.25;5.93;;;;;;;2.21;66.04;99756.97;5114768;28;20434;-54
2023/10/30 01:01:00;;;;;;;6.95;5.35;;;;;;;2.22;66.27;99756.06;5114586;28;20370;-54
2023/10/30 01:03:25;;;;;;;9.90;5.88;;;;;;;2.22;66.01;99741.03;5114536;28;20038;-54
2023/10/30 01:05:58;;;;;;;6.95;5.45;;;;;;;2.27;65.99;99752.25;5114041;27;20468;-56
2023/10/30 01:08:23;;;;;;;7.63;5.80;;;;;;;1.98;66.12;99698.19;5114145;28;20035;-55
2023/10/30 01:10:49;;;;;;;8.15;5.32;;;;;;;2.25;65.71;99742.69;5114303;28;20123;-57
2023/10/30 01:13:15;;;;;;;6.28;5.20;;;;;;;2.26;65.98;99744.41;5114217;28;20092;-54
2023/10/30 01:15:40;;;;;;;6.55;5.25;;;;;;;2.20;66.11;99740.25;5114687;28;20339;-55
2023/10/30 01:18:06;;;;;;;6.65;5.30;;;;;;;2.27;65.80;99740.84;5113389;28;20047;-56
2023/10/30 01:20:32;;;;;;;8.38;6.03;;;;;;;2.09;65.63;99717.00;5113511;28;20076;-54
2023/10/30 01:22:57;;;;;;;7.03;5.18;;;;;;;2.21;65.94;99741.13;5113858;28;20110;-54
2023/10/30 01:25:23;;;;;;;7.03;5.18;;;;;;;2.18;65.78;99728.06;5113722;28;20167;-51
2023/10/30 01:27:49;;;;;;;8.00;5.93;;;;;;;2.03;65.67;99685.59;5113540;28;20084;-54
2023/10/30 01:30:14;;;;;;;7.70;5.50;;;;;;;2.26;65.42;99715.34;5114069;28;20023;-50
2023/10/30 01:32:40;;;;;;;8.00;5.47;;;;;;;2.27;65.04;99717.06;5114013;28;20038;-55
2023/10/30 01:35:05;;;;;;;6.72;5.30;;;;;;;2.26;65.14;99704.78;5113145;28;20096;-55
2023/10/30 01:37:31;;;;;;;6.57;5.28;;;;;;;2.22;64.69;99698.78;5114045;28;20024;-56
2023/10/30 01:39:56;;;;;;;6.55;5.28;;;;;;;2.21;64.88;99712.06;5113902;28;20411;-58
2023/10/30 01:42:22;;;;;;;7.13;5.45;;;;;;;2.22;64.54;99711.97;5112522;28;20038;-58
2023/10/30 01:44:58;;;;;;;9.15;5.65;;;;;;;2.24;64.99;99727.78;5113834;28;20422;-56
2023/10/30 01:47:25;;;;;;;7.50;5.50;;;;;;;2.18;64.85;99731.56;5113154;28;20032;-60
2023/10/30 01:49:55;;;;;;;6.95;5.13;;;;;;;2.21;65.29;99751.69;5113995;28;20311;-56
2023/10/30 01:52:22;;;;;;;7.57;5.72;;;;;;;2.18;65.36;99772.97;5113537;28;20028;-58
2023/10/30 01:54:50;;;;;;;8.95;5.75;;;;;;;2.07;64.79;99747.91;5113631;28;20035;-56
2023/10/30 01:57:18;;;;;;;7.45;5.63;;;;;;;2.15;65.03;99745.75;5113640;28;20484;-56
2023/10/30 01:59:45;;;;;;;10.02;5.75;;;;;;;2.10;64.97;99721.34;5112833;28;20031;-56
2023/10/30 02:02:11;;;;;;;8.15;6.25;;;;;;;2.15;64.55;99721.97;5112998;28;20136;-61
2023/10/30 02:04:37;;;;;;;7.30;5.90;;;;;;;2.17;64.92;99735.13;5113037;28;20027;-57
2023/10/30 02:07:03;;;;;;;8.20;6.05;;;;;;;2.16;64.59;99709.66;5113709;28;20449;-53
2023/10/30 02:09:31;;;;;;;7.85;5.65;;;;;;;2.15;64.36;99687.63;5113160;28;20326;-58
2023/10/30 02:11:57;;;;;;;7.78;5.55;;;;;;;2.17;64.66;99684.06;5113256;28;20028;-60
2023/10/30 02:14:27;;;;;;;7.10;5.55;;;;;;;2.20;64.52;99671.59;5113465;28;20027;-59
2023/10/30 02:16:52;;;;;;;7.18;5.72;;;;;;;2.17;64.59;99661.16;5113046;28;20031;-56
2023/10/30 02:19:25;;;;;;;9.20;6.68;;;;;;;2.24;64.97;99690.78;5112598;28;20042;-58
2023/10/30 02:21:52;;;;;;;10.02;7.10;;;;;;;1.97;64.14;99665.63;5113190;28;20023;-57
2023/10/30 02:24:19;;;;;;;11.18;7.07;;;;;;;2.13;64.44;99723.84;5112891;28;20059;-59
2023/10/30 02:26:49;;;;;;;8.70;6.82;;;;;;;2.13;64.37;99737.06;5112584;28;20042;-56
2023/10/30 02:29:15;;;;;;;11.48;8.18;;;;;;;1.66;64.36;99647.72;5113137;28;20182;-55
2023/10/30 02:31:41;;;;;;;9.15;7.00;;;;;;;2.02;64.56;99726.16;5113255;28;20036;-56
2023/10/30 02:34:07;;;;;;;8.95;6.68;;;;;;;1.95;64.31;99704.44;5112700;28;20052;-57
2023/10/30 02:36:32;;;;;;;8.43;6.47;;;;;;;1.99;64.27;99705.16;5113072;28;20054;-56
2023/10/30 02:38:58;;;;;;;9.77;7.22;;;;;;;2.04;64.16;99713.72;5112454;28;20038;-55
2023/10/30 02:41:26;;;;;;;10.43;6.90;;;;;;;2.04;63.83;99699.66;5112704;28;20026;-58
2023/10/30 02:43:52;;;;;;;9.40;6.32;;;;;;;2.01;64.21;99698.88;5113131;28;20024;-56
2023/10/30 02:46:17;;;;;;;8.10;6.15;;;;;;;2.06;64.05;99711.88;5112862;28;20092;-53
2023/10/30 02:48:43;;;;;;;7.47;5.65;;;;;;;1.82;63.90;99677.75;5112866;28;20447;-57
2023/10/30 02:51:08;;;;;;;8.40;6.15;;;;;;;2.12;64.33;99723.94;5112244;28;20027;-57
2023/10/30 02:53:34;;;;;;;8.05;5.55;;;;;;;2.05;63.72;99712.78;5115514;28;20362;-57
2023/10/30 02:56:00;;;;;;;8.63;6.05;;;;;;;2.05;64.33;99725.13;5116540;28;20110;-55
2023/10/30 02:58:25;;;;;;;8.45;5.85;;;;;;;2.05;64.41;99726.00;5116664;28;20435;-57
2023/10/30 03:00:54;;;;;;;8.40;6.25;;;;;;;2.04;64.64;99713.72;5116991;28;20092;-57
2023/10/30 03:03:19;;;;;;;6.93;5.68;;;;;;;2.10;64.38;99729.28;5116875;28;20304;-55
2023/10/30 03:05:45;;;;;;;7.20;5.38;;;;;;;2.11;64.18;99717.78;5115896;28;20039;-58
2023/10/30 03:08:11;;;;;;;9.75;5.85;;;;;;;2.08;64.16;99710.00;5116652;28;20398;-56
2023/10/30 03:10:37;;;;;;;7.38;6.03;;;;;;;2.08;63.67;99719.72;5117219;28;20090;-57
2023/10/30 03:13:02;;;;;;;6.75;5.05;;;;;;;2.10;63.96;99710.78;5116553;28;20035;-58
2023/10/30 03:15:28;;;;;;;7.88;5.38;;;;;;;2.11;63.81;99704.56;5116642;28;20369;-56
2023/10/30 03:17:53;;;;;;;6.95;5.30;;;;;;;2.13;63.39;99713.28;5115146;28;20442;-58
2023/10/30 03:20:19;;;;;;;7.35;5.55;;;;;;;2.12;63.91;99727.41;5115578;28;20063;-58
2023/10/30 03:22:44;;;;;;;6.85;5.03;;;;;;;2.10;63.24;99737.19;5116592;28;20338;-59
2023/10/30 03:25:10;;;;;;;6.25;5.28;;;;;;;1.91;63.62;99718.72;5116286;28;20059;-54
2023/10/30 03:27:36;;;;;;;7.00;5.13;;;;;;;2.06;63.58;99750.63;5116211;28;20433;-55
2023/10/30 03:30:02;;;;;;;6.65;5.18;;;;;;;2.08;63.33;99762.81;5115294;28;20034;-59
2023/10/30 03:32:31;;;;;;;7.45;5.57;;;;;;;1.86;63.62;99726.84;5116188;28;20081;-53
2023/10/30 03:34:59;;;;;;;6.22;4.72;;;;;;;1.86;63.71;99736.56;5116108;28;20470;-58
2023/10/30 03:37:25;;;;;;;5.90;4.43;;;;;;;2.09;63.25;99779.53;5116104;28;20484;-55
2023/10/30 03:39:50;;;;;;;7.28;4.70;;;;;;;2.13;63.18;99796.97;5114760;28;20102;-56
2023/10/30 03:42:16;;;;;;;7.30;4.60;;;;;;;2.09;62.71;99790.94;5114679;28;20515;-59
2023/10/30 03:44:41;;;;;;;6.53;4.78;;;;;;;2.13;62.89;99781.09;5116199;28;20063;-56
2023/10/30 03:47:07;;;;;;;6.28;4.55;;;;;;;2.17;62.90;99792.38;5115796;28;20026;-58
2023/10/30 03:49:32;;;;;;;6.45;4.40;;;;;;;2.18;62.20;99789.66;5115966;28;20027;-57
2023/10/30 03:51:58;;;;;;;5.15;4.13;;;;;;;2.24;62.49;99783.25;5114811;28;20052;-53
2023/10/30 03:54:23;;;;;;;6.57;4.40;;;;;;;2.21;62.29;99778.13;5115758;28;20046;-56
2023/10/30 03:56:49;;;;;;;5.45;4.18;;;;;;;2.06;62.33;99745.34;5115786;28;20447;-57
2023/10/30 03:59:16;;;;;;;6.13;4.25;;;;;;;2.15;61.61;99753.69;5116017;28;20032;-56
2023/10/30 04:01:42;;;;;;;6.95;4.43;;;;;;;2.15;61.66;99748.41;5116051;28;20031;-54
2023/10/30 04:04:08;;;;;;;6.28;4.30;;;;;;;2.24;61.60;99748.91;5115523;27;20036;-58
2023/10/30 04:06:35;;;;;;;6.03;4.50;;;;;;;2.27;61.09;99727.63;5115137;28;20057;-54
2023/10/30 04:09:03;;;;;;;7.20;4.88;;;;;;;2.19;61.81;99692.81;5115350;28;20089;-54
2023/10/30 04:11:29;;;;;;;6.57;4.63;;;;;;;2.13;62.26;99673.66;5115124;28;20027;-54
2023/10/30 04:13:54;;;;;;;7.30;4.90;;;;;;;2.17;62.16;99681.44;5115167;28;20084;-55
2023/10/30 04:16:20;;;;;;;6.47;4.70;;;;;;;2.15;62.62;99679.72;5114492;28;20066;-51
2023/10/30 04:18:46;;;;;;;5.90;4.50;;;;;;;2.10;62.71;99671.16;5115659;28;20111;-53
2023/10/30 04:21:12;;;;;;;8.55;4.60;;;;;;;2.11;62.35;99664.13;5115413;28;20039;-59
2023/10/30 04:23:38;;;;;;;6.43;4.80;;;;;;;2.00;62.95;99669.91;5115097;28;20027;-57
2023/10/30 04:26:04;;;;;;;5.88;4.40;;;;;;;1.96;63.28;99663.91;5114368;28;20062;-56
2023/10/30 04:28:30;;;;;;;7.22;4.97;;;;;;;1.92;62.93;99659.72;5114639;28;20078;-59
2023/10/30 04:30:55;;;;;;;5.80;4.28;;;;;;;1.89;63.32;99651.06;5113513;28;20067;-59
2023/10/30 04:33:21;;;;;;;7.10;4.78;;;;;;;1.82;63.97;99635.53;5114649;28;20052;-58
2023/10/30 04:35:46;;;;;;;8.85;5.40;;;;;;;1.89;64.01;99629.94;5114577;28;20023;-59
2023/10/30 04:38:12;;;;;;;9.07;5.13;;;;;;;1.77;64.66;99605.84;5114832;28;20024;-54
2023/10/30 04:40:37;;;;;;;9.48;5.53;;;;;;;1.90;64.63;99634.28;5113631;28;20020;-56
2023/10/30 04:43:03;;;;;;;7.95;5.35;;;;;;;1.86;65.10;99631.81;5114488;28;20043;-59
2023/10/30 04:45:28;;;;;;;9.05;5.65;;;;;;;1.86;64.55;99629.16;5113880;28;20469;-53
2023/10/30 04:47:54;;;;;;;7.88;5.38;;;;;;;1.67;64.81;99615.13;5114015;28;20064;-51
2023/10/30 04:50:20;;;;;;;8.88;5.75;;;;;;;1.77;65.16;99647.22;5113153;28;20038;-50
2023/10/30 04:52:45;;;;;;;6.90;5.40;;;;;;;1.70;65.68;99644.03;5114134;28;20023;-53
2023/10/30 04:55:11;;;;;;;9.02;5.90;;;;;;;1.45;66.40;99608.25;5114311;28;20161;-52
2023/10/30 04:57:36;;;;;;;9.35;6.00;;;;;;;1.68;66.00;99653.78;5114176;28;20015;-50
2023/10/30 05:00:04;;;;;;;9.73;5.90;;;;;;;1.66;66.96;99645.97;5114393;28;20319;-53
2023/10/30 05:02:30;;;;;;;9.45;6.25;;;;;;;1.67;67.16;99666.13;5112496;28;20038;-53
2023/10/30 05:04:56;;;;;;;9.00;6.10;;;;;;;1.74;67.10;99647.38;5113282;28;20035;-58
2023/10/30 05:07:21;;;;;;;9.07;6.15;;;;;;;1.77;66.83;99650.72;5113229;28;20438;-58
2023/10/30 05:09:47;;;;;;;8.25;5.22;;;;;;;1.78;66.17;99652.44;5113641;28;20031;-54
2023/10/30 05:12:12;;;;;;;7.50;4.82;;;;;;;1.73;66.02;99649.16;5113056;28;20361;-58
2023/10/30 05:14:38;;;;;;;6.95;4.93;;;;;;;1.69;66.31;99644.97;5113950;28;20019;-58
2023/10/30 05:17:03;;;;;;;7.82;4.85;;;;;;;1.60;66.96;99640.09;5111532;28;20030;-59
2023/10/30 05:19:29;;;;;;;7.68;5.10;;;;;;;1.60;67.19;99643.59;5113485;28;20027;-55
2023/10/30 05:21:55;;;;;;;7.63;5.13;;;;;;;1.51;66.99;99621.13;5111696;28;20039;-58
2023/10/30 05:24:23;;;;;;;11.77;5.72;;;;;;;1.52;67.36;99609.66;5112686;28;20055;-54
2023/10/30 05:26:49;;;;;;;8.45;5.32;;;;;;;1.51;67.81;99610.59;5111831;28;20031;-55
2023/10/30 05:29:15;;;;;;;9.23;6.00;;;;;;;1.53;68.21;99618.41;5113965;28;20421;-57
2023/10/30 05:31:42;;;;;;;8.43;5.45;;;;;;;1.50;68.22;99608.00;5113788;28;20023;-56
2023/10/30 05:34:08;;;;;;;8.10;5.50;;;;;;;1.52;68.09;99596.47;5112580;28;20024;-57
2023/10/30 05:36:34;;;;;;;8.85;5.55;;;;;;;1.50;68.33;99593.03;5113117;28;20055;-53
2023/10/30 05:39:00;;;;;;;9.57;5.68;;;;;;;1.51;68.87;99592.13;5113167;28;20078;-57
2023/10/30 05:41:25;;;;;;;10.98;5.85;;;;;;;1.54;68.73;99596.38;5112780;28;20024;-57
2023/10/30 05:43:52;;;;;;;9.65;4.30;;;;;;;1.47;67.82;99561.53;5112985;28;20373;-59
2023/10/30 05:46:17;;;;;;;8.32;5.70;;;;;;;1.57;67.96;99578.63;5113809;28;20028;-55
2023/10/30 05:48:44;;;;;;;7.82;5.57;;;;;;;1.54;68.25;99565.56;5113495;28;20102;-56
2023/10/30 05:51:10;;;;;;;8.60;5.85;;;;;;;1.55;68.05;99553.22;5113500;28;20035;-59
2023/10/30 05:53:36;;;;;;;7.22;4.63;;;;;;;1.54;67.98;99541.84;5113506;28;20959;-54
2023/10/30 05:56:01;;;;;;;8.52;5.25;;;;;;;1.49;69.03;99554.41;5113406;28;20465;-54
2023/10/30 05:58:27;;;;;;;8.40;5.40;;;;;;;1.48;68.76;99542.13;5113193;28;20027;-53
2023/10/30 06:00:53;;;;;;;8.85;5.10;;;;;;;1.52;68.37;99543.69;5113409;28;20028;-54
2023/10/30 06:03:18;;;;;;;7.30;4.35;;;;;;;1.51;68.05;99526.16;5112814;28;20039;-55
2023/10/30 06:05:44;;;;;;;9.25;4.90;;;;;;;1.56;68.01;99539.97;5113664;28;20027;-55
2023/10/30 06:08:10;;;;;;;8.45;5.10;;;;;;;1.54;67.96;99540.97;5112022;28;20039;-56
2023/10/30 06:10:38;;;;;;;7.38;4.75;;;;;;;1.53;68.10;99519.00;5112998;28;20027;-54
2023/10/30 06:13:06;;;;;;;7.47;4.75;;;;;;;1.36;68.32;99487.31;5112914;28;20027;-57
2023/10/30 06:15:32;;;;;;;6.28;4.97;;;;;;;1.31;68.45;99476.97;5113272;28;20172;-55
2023/10/30 06:17:57;;;;;;;7.55;5.25;;;;;;;1.50;68.76;99502.47;5113146;28;20027;-53
2023/10/30 06:20:23;;;;;;;10.07;5.18;;;;;;;1.61;68.99;99518.66;5112773;28;20110;-55
2023/10/30 06:22:49;;;;;;;7.90;5.05;;;;;;;1.63;68.48;99502.72;5112984;28;20423;-51
2023/10/30 06:25:14;;;;;;;9.68;5.88;;;;;;;1.62;68.69;99496.59;5112119;28;20411;-55
2023/10/30 06:27:41;;;;;;;9.27;5.88;;;;;;;1.47;67.66;99461.28;5112206;28;20035;-55
2023/10/30 06:30:08;;;;;;;9.13;5.13;;;;;;;1.60;68.00;99469.44;5113019;28;20024;-56
2023/10/30 06:32:34;;;;;;;9.63;6.25;;;;;;;1.64;68.22;99475.41;5112205;28;20039;-58
2023/10/30 06:35:00;;;;;;;8.15;5.20;;;;;;;1.53;68.00;99449.53;5112015;28;20032;-56
2023/10/30 06:37:25;;;;;;;9.73;5.50;;;;;;;1.39;68.59;99429.13;5112975;28;20065;-57
2023/10/30 06:39:51;;;;;;;9.73;5.97;;;;;;;1.47;69.29;99457.75;5112275;28;20453;-58
2023/10/30 06:42:16;;;;;;;10.88;5.80;;;;;;;1.37;68.87;99437.13;5112622;28;20323;-57
2023/10/30 06:44:42;;;;;;;8.63;5.55;;;;;;;1.57;68.79;99459.03;5111796;28;20023;-56
2023/10/30 06:47:07;;;;;;;11.57;6.05;;;;;;;1.48;69.29;99443.66;5112016;28;20070;-56
2023/10/30 06:49:33;;;;;;;9.43;5.93;;;;;;;1.52;69.71;99442.56;5112549;28;20438;-56
2023/10/30 06:52:00;;;;;;;9.43;5.78;;;;;;;1.45;69.78;99452.59;5109936;28;20501;-61
2023/10/30 06:54:26;;;;;;;8.82;5.35;;;;;;;1.55;68.77;99445.03;5109816;28;20125;-60
2023/10/30 06:56:52;;;;;;;7.15;4.97;;;;;;;1.50;69.15;99434.75;5112181;28;20055;-60
2023/10/30 06:59:18;;;;;;;9.93;5.32;;;;;;;1.53;69.03;99433.72;5112328;28;20035;-61
2023/10/30 07:01:46;;;;;;;12.48;5.90;;;;;;;1.46;69.74;99429.69;5105655;28;20035;-59
2023/10/30 07:04:13;;;;;;;7.85;4.72;;;;;;;1.28;69.65;99388.31;5110955;28;20354;-61
2023/10/30 07:06:43;;;;;;;7.45;4.85;;;;;;;1.62;69.11;99419.22;5110686;28;20077;-57
2023/10/30 07:09:10;;;;;;;8.07;5.07;;;;;;;1.53;69.02;99421.38;5111720;28;20036;-59
2023/10/30 07:11:36;;;;;;;7.57;5.05;;;;;;;1.32;69.51;99356.50;5109899;28;20036;-61
2023/10/30 07:14:02;;;;;;;7.22;5.18;;;;;;;1.50;69.30;99397.81;5112322;28;20412;-57
2023/10/30 07:16:29;;;;;;;8.00;5.03;;;;;;;1.65;69.32;99413.78;5112036;28;20057;-60
2023/10/30 07:18:56;;;;;;;8.55;5.25;;;;;;;1.46;68.33;99363.72;5111456;28;20028;-60
2023/10/30 07:21:21;;;;;;;9.23;5.60;;;;;;;1.54;68.94;99377.38;5112188;28;20059;-53
2023/10/30 07:23:47;;;;;;;7.47;5.50;;;;;;;1.56;69.25;99384.28;5112024;28;20078;-60
2023/10/30 07:26:12;;;;;;;9.63;5.78;;;;;;;1.62;69.59;99380.50;5111961;28;20051;-59
2023/10/30 07:28:38;;;;;;;10.27;5.47;;;;;;;1.61;69.57;99364.72;5109518;28;20347;-59
2023/10/30 07:31:04;;;;;;;14.57;6.38;;;;;;;1.61;69.24;99356.81;5107155;28;20077;-56
2023/10/30 07:33:29;;;;;;;7.70;5.60;;;;;;;1.64;69.25;99351.38;5112299;28;20135;-59
2023/10/30 07:35:55;;;;;;;8.13;4.97;;;;;;;1.59;69.57;99338.44;5112241;28;20046;-59
2023/10/30 07:38:20;;;;;;;9.15;5.43;;;;;;;1.63;69.47;99360.22;5112023;28;20035;-56
2023/10/30 07:40:46;;;;;;;9.45;5.15;;;;;;;1.62;69.59;99379.63;5114517;28;20028;-53
2023/10/30 07:43:11;;;;;;;10.10;5.55;;;;;;;1.60;70.12;99355.09;5115207;28;20119;-56
2023/10/30 07:45:41;;;;;;;12.10;4.88;;;;;;;1.69;69.61;99376.59;5115350;28;20115;-58
2023/10/30 07:48:07;;;;;;;8.30;4.97;;;;;;;1.63;69.97;99366.38;5114392;28;20046;-57
2023/10/30 07:50:35;;;;;;;7.75;5.05;;;;;;;1.60;70.14;99355.97;5115900;27;20423;-53
2023/10/30 07:53:01;;;;;;;7.88;5.25;;;;;;;1.39;70.25;99327.09;5114351;28;20028;-53
2023/10/30 07:55:27;;;;;;;10.20;5.38;;;;;;;1.45;70.73;99314.53;5115124;28;20072;-51
2023/10/30 07:57:53;;;;;;;9.48;5.40;;;;;;;1.71;70.49;99337.78;5114280;28;20116;-55
2023/10/30 08:00:18;;;;;;;8.18;5.22;;;;;;;1.78;69.75;99343.59;5107476;28;20449;-55
2023/10/30 08:02:46;;;;;;;7.80;4.68;;;;;;;1.79;69.65;99353.22;5106227;28;20032;-56
2023/10/30 08:05:14;;;;;;;9.38;5.60;;;;;;;1.77;70.12;99347.19;5115164;28;20039;-56
2023/10/30 08:07:44;;;;;;;9.43;5.28;;;;;;;1.70;71.03;99336.09;5114569;28;20039;-57
2023/10/30 08:10:11;;;;;;;9.02;4.93;;;;;;;1.78;71.03;99354.16;5114510;28;20119;-59
2023/10/30 08:12:38;;;;;;;8.25;4.30;;;;;;;1.76;71.03;99337.56;5113224;28;20051;-55
2023/10/30 08:15:05;;;;;;;7.05;4.85;;;;;;;1.89;70.32;99331.63;5097044;28;20434;-62
2023/10/30 08:17:31;;;;;;;10.40;4.50;;;;;;;1.84;70.92;99327.44;5114155;28;20031;-63
2023/10/30 08:19:56;;;;;;;8.02;4.45;;;;;;;1.70;70.53;99295.66;5114763;28;20042;-58
2023/10/30 08:22:22;;;;;;;6.40;4.25;;;;;;;1.82;71.03;99321.38;5110839;28;20039;-56
2023/10/30 08:24:48;;;;;;;6.20;4.10;;;;;;;1.95;70.49;99318.13;5094458;28;20036;-55
2023/10/30 08:27:14;;;;;;;8.98;4.18;;;;;;;1.93;70.32;99314.69;5113124;28;20036;-56
2023/10/30 08:29:39;;;;;;;8.90;3.88;;;;;;;1.88;70.81;99295.59;5094532;28;20451;-57
2023/10/30 08:32:05;;;;;;;5.50;3.53;;;;;;;1.97;70.54;99295.13;5111094;28;20486;-56
2023/10/30 08:34:30;;;;;;;6.65;4.22;;;;;;;1.85;70.76;99286.06;5113481;28;20086;-55
2023/10/30 08:36:56;;;;;;;7.90;4.03;;;;;;;1.82;71.02;99280.97;5113852;28;20106;-57
2023/10/30 08:39:21;;;;;;;7.50;4.00;;;;;;;1.73;71.04;99258.53;5114158;28;20019;-57
2023/10/30 08:41:47;;;;;;;9.93;3.80;;;;;;;1.85;70.95;99280.78;5113621;28;20035;-56
2023/10/30 08:44:13;;;;;;;7.55;3.90;;;;;;;1.82;71.33;99273.03;5113910;28;20238;-56
2023/10/30 08:46:39;;;;;;;7.60;4.45;;;;;;;1.81;72.02;99269.53;5113750;28;20050;-55
2023/10/30 08:49:05;;;;;;;7.68;4.45;;;;;;;1.86;72.16;99274.56;5114330;28;20019;-57
2023/10/30 08:51:31;;;;;;;5.78;4.00;;;;;;;1.94;71.52;99287.38;5114446;28;20115;-56
2023/10/30 08:53:57;;;;;;;4.90;3.63;;;;;;;1.94;71.82;99274.16;5113535;28;20110;-57
2023/10/30 08:56:22;;;;;;;5.88;3.95;;;;;;;1.99;71.04;99264.22;5113737;28;20458;-58
2023/10/30 08:58:48;;;;;;;10.18;6.53;;;;;;;1.93;71.61;99262.75;5114493;28;20027;-56
2023/10/30 09:01:15;;;;;;;7.88;4.45;;;;;;;2.00;72.38;99253.53;5113904;28;20035;-54
2023/10/30 09:03:44;;;;;;;5.20;3.90;;;;;;;2.01;71.89;99238.56;5114073;27;20127;-57
2023/10/30 09:06:09;;;;;;;9.38;4.85;;;;;;;2.00;71.53;99207.81;5113825;28;20027;-57
2023/10/30 09:08:35;;;;;;;6.88;4.57;;;;;;;2.07;71.53;99209.19;5111600;28;20027;-60
2023/10/30 09:11:00;;;;;;;5.82;3.92;;;;;;;2.10;71.63;99201.09;5113313;28;20031;-55
2023/10/30 09:13:26;;;;;;;6.90;4.30;;;;;;;2.15;71.51;99204.31;5113358;28;20027;-56
2023/10/30 09:15:51;;;;;;;6.72;4.50;;;;;;;2.11;72.00;99192.22;5112388;28;20106;-56
2023/10/30 09:18:17;;;;;;;7.18;4.40;;;;;;;2.14;71.84;99188.56;5114019;28;20114;-55
2023/10/30 09:20:42;;;;;;;9.65;4.47;;;;;;;2.14;71.29;99192.03;5113071;28;20097;-55
2023/10/30 09:23:08;;;;;;;6.57;4.50;;;;;;;2.17;71.29;99179.59;5112961;27;20062;-52
2023/10/30 09:25:33;;;;;;;7.75;5.25;;;;;;;2.15;71.63;99167.34;5114026;28;20264;-60
2023/10/30 09:28:00;;;;;;;7.97;4.72;;;;;;;2.08;71.20;99141.38;5113949;28;20038;-55
2023/10/30 09:30:30;;;;;;;8.98;5.32;;;;;;;1.92;71.71;99101.78;5113944;28;20683;-59
2023/10/30 09:32:59;;;;;;;8.95;5.40;;;;;;;2.09;72.18;99130.72;5112139;28;20023;-56
2023/10/30 09:35:32;;;;;;;9.65;5.55;;;;;;;2.09;72.50;99112.22;5111947;28;20046;-56
2023/10/30 09:37:58;;;;;;;8.15;5.53;;;;;;;2.13;72.16;99079.44;5111985;28;20037;-60
2023/10/30 09:40:27;;;;;;;10.82;5.85;;;;;;;2.18;72.33;99073.06;5113048;28;20476;-56
2023/10/30 09:42:57;;;;;;;9.30;5.13;;;;;;;2.25;72.34;99079.66;5113544;28;20426;-56
2023/10/30 09:45:24;;;;;;;9.15;5.80;;;;;;;2.23;72.27;99066.53;5112378;28;20447;-56
2023/10/30 09:47:54;;;;;;;9.20;5.45;;;;;;;2.28;71.97;99040.69;5113620;28;20027;-61
2023/10/30 09:50:22;;;;;;;9.68;6.38;;;;;;;2.23;72.63;99040.13;5113726;28;20045;-59
2023/10/30 09:52:50;;;;;;;10.40;6.20;;;;;;;2.28;72.21;99030.13;5112662;28;20403;-55
2023/10/30 09:55:18;;;;;;;11.85;6.60;;;;;;;2.29;72.56;99020.44;5112777;28;20035;-58
2023/10/30 09:57:49;;;;;;;9.35;6.20;;;;;;;2.27;72.30;99011.75;5112994;27;20108;-55
2023/10/30 10:00:16;;;;;;;12.20;6.70;;;;;;;2.23;72.97;98986.47;5111579;28;20038;-54
2023/10/30 10:02:42;;;;;;;10.85;6.13;;;;;;;2.21;72.66;98943.47;5112545;28;20483;-57
2023/10/30 10:05:08;;;;;;;11.10;6.75;;;;;;;2.25;73.11;98924.66;5112990;28;20031;-53
2023/10/30 10:07:36;;;;;;;10.85;6.43;;;;;;;2.42;72.68;98951.84;5112493;28;20024;-57
2023/10/30 10:10:04;;;;;;;11.10;6.75;;;;;;;2.11;73.29;98933.44;5112187;28;20042;-55
2023/10/30 10:12:33;;;;;;;10.23;6.63;;;;;;;2.29;73.26;98978.16;5113337;28;20027;-53
2023/10/30 10:15:02;;;;;;;10.13;6.78;;;;;;;2.24;72.98;98945.91;5112982;28;20349;-52
2023/10/30 10:17:30;;;;;;;10.27;6.25;;;;;;;2.34;73.86;98975.25;5112916;28;20453;-59
2023/10/30 10:19:56;;;;;;;12.88;7.32;;;;;;;2.37;73.49;98996.22;5113537;28;20119;-54
2023/10/30 10:22:29;;;;;;;13.25;7.53;;;;;;;2.41;73.68;98974.81;5113113;28;20096;-57
2023/10/30 10:24:55;;;;;;;14.13;7.22;;;;;;;2.40;73.87;98975.72;5092884;28;20048;-55
2023/10/30 10:27:23;;;;;;;14.65;7.05;;;;;;;2.39;73.73;98975.81;5112742;28;20035;-56
2023/10/30 10:29:57;;;;;;;11.30;7.13;;;;;;;2.38;74.01;98996.09;5112721;28;20122;-56
2023/10/30 10:32:27;;;;;;;13.30;7.43;;;;;;;2.53;73.81;99006.69;5113431;28;20088;-57
2023/10/30 10:34:56;;;;;;;15.02;7.55;;;;;;;2.53;74.06;98998.75;5112543;28;20036;-55
2023/10/30 10:37:21;;;;;;;13.98;8.85;;;;;;;2.54;74.05;98996.03;5111882;28;20560;-58
2023/10/30 10:39:49;;;;;;;20.80;7.20;;;;;;;2.52;74.21;98979.41;5111045;28;20067;-56
2023/10/30 10:42:19;;;;;;;11.73;7.45;;;;;;;2.56;74.70;98965.09;5111804;28;20357;-57
2023/10/30 10:44:45;;;;;;;13.95;7.32;;;;;;;2.63;74.48;98978.75;5112395;28;20321;-54
2023/10/30 10:47:12;;;;;;;12.32;7.55;;;;;;;2.68;74.21;98973.19;5109895;28;20085;-55
2023/10/30 10:49:37;;;;;;;11.98;7.10;;;;;;;2.60;74.25;98936.66;5112025;28;20020;-56
2023/10/30 10:52:09;;;;;;;11.00;7.70;;;;;;;2.85;73.56;98937.75;5110718;28;20035;-62
2023/10/30 10:54:43;;;;;;;13.10;8.13;;;;;;;2.75;74.21;98944.59;5112574;28;20077;-60
2023/10/30 10:57:10;;;;;;;11.65;7.95;;;;;;;2.72;74.94;98937.69;5112659;28;20386;-60
2023/10/30 10:59:39;;;;;;;13.88;8.70;;;;;;;2.76;74.16;98922.50;5112538;28;20059;-58
2023/10/30 11:02:10;;;;;;;15.43;8.48;;;;;;;2.79;74.31;98932.88;5111148;28;20028;-58
2023/10/30 11:04:36;;;;;;;13.48;8.57;;;;;;;2.79;74.36;98930.22;5112795;28;20043;-59
2023/10/30 11:07:07;;;;;;;14.00;8.65;;;;;;;2.81;74.54;98915.97;5110836;28;20024;-59
2023/10/30 11:09:42;;;;;;;14.57;8.90;;;;;;;2.84;74.72;98880.56;5110621;28;20030;-58
2023/10/30 11:12:31;;;;;;;14.52;9.15;;;;;;;2.83;75.02;98895.59;5112367;28;20031;-59
2023/10/30 11:15:09;;;;;;;16.27;8.68;;;;;;;2.87;75.03;98883.00;5114647;28;20399;-58
2023/10/30 11:17:36;;;;;;;14.18;8.77;;;;;;;2.80;74.55;98842.03;5115582;28;20030;-58
2023/10/30 11:20:08;;;;;;;12.57;8.32;;;;;;;2.89;74.95;98862.59;5115980;28;20074;-60
2023/10/30 11:22:41;;;;;;;14.75;8.93;;;;;;;2.76;74.70;98822.06;5100854;28;20051;-55
2023/10/30 11:25:36;;;;;;;15.93;8.90;;;;;;;3.08;74.34;98838.47;5116483;28;20047;-61
2023/10/30 11:28:03;;;;;;;12.57;7.65;;;;;;;3.12;74.95;98844.38;5107744;28;20047;-55
2023/10/30 11:30:32;;;;;;;12.73;8.23;;;;;;;3.10;75.67;98827.78;5109692;28;20023;-59
2023/10/30 11:32:58;;;;;;;13.73;8.77;;;;;;;3.12;75.86;98828.50;5112285;28;20130;-58
2023/10/30 11:35:24;;;;;;;13.43;8.43;;;;;;;3.23;75.29;98839.25;5115269;28;20027;-60